createdAt,value
2022-09-17T00:00:17.623Z,1.05
2022-09-17T00:01:24.956Z,2.47
2022-09-17T00:02:26.627Z,1.02
2022-09-17T00:03:29.105Z,1.35
2022-09-17T00:04:31.114Z,1.65
2022-09-17T00:05:32.728Z,0.80
2022-09-17T00:06:36.350Z,1.42
2022-09-17T00:07:37.899Z,3.05
2022-09-17T00:08:41.551Z,2.50
2022-09-17T00:09:43.853Z,0.90
2022-09-17T00:10:45.756Z,0.60
2022-09-17T00:11:47.316Z,1.15
2022-09-17T00:12:49.186Z,0.55
2022-09-17T00:13:52.152Z,2.90
2022-09-17T00:14:55.107Z,0.75
2022-09-17T00:15:56.741Z,0.95
2022-09-17T00:17:01.805Z,1.20
2022-09-17T00:18:03.774Z,3.92
2022-09-17T00:19:08.377Z,3.22
2022-09-17T00:20:10.776Z,0.52
2022-09-17T00:21:19.726Z,0.50
2022-09-17T00:22:21.259Z,0.57
2022-09-17T00:23:22.826Z,0.55
2022-09-17T00:24:24.390Z,0.50
2022-09-17T00:25:26.297Z,0.60
2022-09-17T00:26:29.159Z,0.90
2022-09-17T00:27:31.127Z,2.40
2022-09-17T00:28:32.815Z,0.80
2022-09-17T00:29:34.481Z,2.55
2022-09-17T00:30:38.807Z,1.27
2022-09-17T00:31:40.773Z,0.82
2022-09-17T00:32:42.325Z,3.53
2022-09-17T00:33:43.882Z,0.60
2022-09-17T00:34:46.529Z,0.50
2022-09-17T00:35:59.365Z,2.17
2022-09-17T00:37:00.911Z,0.70
2022-09-17T00:38:02.477Z,0.85
2022-09-17T00:39:06.257Z,1.25
2022-09-17T00:40:08.729Z,0.70
2022-09-17T00:41:10.306Z,1.48
2022-09-17T00:42:13.518Z,0.70
2022-09-17T00:43:32.941Z,1.10
2022-09-17T00:44:53.253Z,0.60
2022-09-17T00:45:54.922Z,1.05
2022-09-17T00:46:56.536Z,0.63
2022-09-17T00:47:59.858Z,2.75
2022-09-17T00:49:20.313Z,0.73
2022-09-17T00:50:29.158Z,0.73
2022-09-17T00:51:38.823Z,1.02
2022-09-17T00:52:42.819Z,0.80
2022-09-17T00:53:44.496Z,0.80
2022-09-17T00:54:54.211Z,0.60
2022-09-17T00:56:02.904Z,0.80
2022-09-17T00:57:04.667Z,0.60
2022-09-17T00:58:09.606Z,0.50
2022-09-17T00:59:11.591Z,0.60
2022-09-17T01:00:15.700Z,0.60
2022-09-17T01:01:17.903Z,3.60
2022-09-17T01:02:20.407Z,0.60
2022-09-17T01:03:22.097Z,1.17
2022-09-17T01:04:26.643Z,1.00
2022-09-17T01:05:56.754Z,0.70
2022-09-17T01:07:13.785Z,0.60
2022-09-17T01:08:27.279Z,1.73
2022-09-17T01:09:43.839Z,0.70
2022-09-17T01:11:23.452Z,0.60
2022-09-17T01:12:49.454Z,0.70
2022-09-17T01:14:19.275Z,2.65
2022-09-17T01:15:26.744Z,0.55
2022-09-17T01:16:58.592Z,0.70
2022-09-17T01:18:15.064Z,1.30
2022-09-17T01:19:16.547Z,1.40
2022-09-17T01:20:26.937Z,2.05
2022-09-17T01:21:51.436Z,0.80
2022-09-17T01:23:46.416Z,0.70
2022-09-17T01:25:25.459Z,1.63
2022-09-17T01:26:46.627Z,0.60
2022-09-17T01:28:10.811Z,0.93
2022-09-17T01:29:49.532Z,0.60
2022-09-17T01:31:38.879Z,0.70
2022-09-17T01:32:52.455Z,0.60
2022-09-17T01:34:41.977Z,1.20
2022-09-17T01:36:12.494Z,1.65
2022-09-17T01:37:30.736Z,0.50
2022-09-17T01:38:45.225Z,1.15
2022-09-17T01:39:57.881Z,0.63
2022-09-17T01:41:25.361Z,1.95
2022-09-17T01:42:47.281Z,1.38
2022-09-17T01:43:55.149Z,1.02
2022-09-17T01:45:17.359Z,0.60
2022-09-17T01:46:27.249Z,0.65
2022-09-17T01:47:44.020Z,2.88
2022-09-17T01:48:48.773Z,1.05
2022-09-17T01:49:59.785Z,0.70
2022-09-17T01:51:05.948Z,0.88
2022-09-17T01:52:10.901Z,0.65
2022-09-17T01:53:15.241Z,0.60
2022-09-17T01:54:26.141Z,0.60
2022-09-17T01:55:33.557Z,0.95
2022-09-17T01:56:44.798Z,1.35
2022-09-17T01:58:20.150Z,5.22
2022-09-17T01:59:29.858Z,2.55
2022-09-17T02:00:31.502Z,1.40
2022-09-17T02:01:36.743Z,3.30
2022-09-17T02:03:02.279Z,4.00
2022-09-17T02:04:39.464Z,1.10
2022-09-17T02:05:52.767Z,1.67
2022-09-17T02:07:05.057Z,1.90
2022-09-17T02:08:15.742Z,1.60
2022-09-17T02:09:22.350Z,1.35
2022-09-17T02:10:31.810Z,2.83
2022-09-17T02:11:37.004Z,2.65
2022-09-17T02:12:49.000Z,1.48
2022-09-17T02:13:58.742Z,5.95
2022-09-17T02:15:03.671Z,3.15
2022-09-17T02:16:22.611Z,2.72
2022-09-17T02:17:31.075Z,6.70
2022-09-17T02:19:03.665Z,4.63
2022-09-17T02:20:06.814Z,3.45
2022-09-17T02:21:32.460Z,0.90
2022-09-17T02:22:50.266Z,3.65
2022-09-17T02:24:18.428Z,0.98
2022-09-17T02:25:33.438Z,6.93
2022-09-17T02:26:38.911Z,4.20
2022-09-17T02:28:11.777Z,7.30
2022-09-17T02:29:38.913Z,6.03
2022-09-17T02:30:40.508Z,6.25
2022-09-17T02:31:42.399Z,2.33
2022-09-17T02:32:44.109Z,8.70
2022-09-17T02:33:50.180Z,4.75
2022-09-17T02:34:51.966Z,6.90
2022-09-17T02:35:53.646Z,5.07
2022-09-17T02:36:56.591Z,4.85
2022-09-17T02:37:59.493Z,9.15
2022-09-17T02:39:03.758Z,6.03
2022-09-17T02:40:06.599Z,5.95
2022-09-17T02:41:25.297Z,5.85
2022-09-17T02:42:35.512Z,6.68
2022-09-17T02:44:01.788Z,8.82
2022-09-17T02:45:09.445Z,14.32
2022-09-17T02:46:26.509Z,5.78
2022-09-17T02:47:33.871Z,9.27
2022-09-17T02:49:05.269Z,9.57
2022-09-17T02:50:37.565Z,4.03
2022-09-17T02:51:52.462Z,7.22
2022-09-17T02:53:23.701Z,11.32
2022-09-17T02:54:38.449Z,9.38
2022-09-17T02:55:49.737Z,6.80
2022-09-17T02:57:22.042Z,11.88
2022-09-17T02:58:41.078Z,9.25
2022-09-17T02:59:43.677Z,10.77
2022-09-17T03:00:46.228Z,5.32
2022-09-17T03:02:05.573Z,10.65
2022-09-17T03:03:10.585Z,6.85
2022-09-17T03:04:15.857Z,9.30
2022-09-17T03:05:19.942Z,9.15
2022-09-17T03:06:22.448Z,6.85
2022-09-17T03:07:24.941Z,5.95
2022-09-17T03:08:34.274Z,4.22
2022-09-17T03:09:36.222Z,20.50
2022-09-17T03:10:37.843Z,10.75
2022-09-17T03:11:39.474Z,13.18
2022-09-17T03:12:41.107Z,6.32
2022-09-17T03:13:42.702Z,10.63
2022-09-17T03:14:44.267Z,8.18
2022-09-17T03:15:45.868Z,6.97
2022-09-17T03:16:48.026Z,7.07
2022-09-17T03:17:53.272Z,7.55
2022-09-17T03:18:55.105Z,8.88
2022-09-17T03:19:56.662Z,7.35
2022-09-17T03:20:58.483Z,5.45
2022-09-17T03:22:00.308Z,10.88
2022-09-17T03:23:01.846Z,6.28
2022-09-17T03:24:03.593Z,8.27
2022-09-17T03:25:05.556Z,6.50
2022-09-17T03:26:07.121Z,4.85
2022-09-17T03:27:08.657Z,6.57
2022-09-17T03:28:10.237Z,5.97
2022-09-17T03:29:11.779Z,8.88
2022-09-17T03:30:13.315Z,6.13
2022-09-17T03:31:14.895Z,7.72
2022-09-17T03:32:16.494Z,5.07
2022-09-17T03:33:18.301Z,11.38
2022-09-17T03:34:20.882Z,6.90
2022-09-17T03:35:22.486Z,9.55
2022-09-17T03:36:24.435Z,7.25
2022-09-17T03:37:28.888Z,5.70
2022-09-17T03:38:34.276Z,11.13
2022-09-17T03:39:36.114Z,4.05
2022-09-17T03:40:37.897Z,5.60
2022-09-17T03:41:39.668Z,12.18
2022-09-17T03:42:41.313Z,4.43
2022-09-17T03:43:43.115Z,3.90
2022-09-17T03:44:45.507Z,5.45
2022-09-17T03:45:47.510Z,12.05
2022-09-17T03:46:49.555Z,6.85
2022-09-17T03:47:51.142Z,13.43
2022-09-17T03:48:53.221Z,11.45
2022-09-17T03:49:54.828Z,9.82
2022-09-17T03:50:57.207Z,10.93
2022-09-17T03:51:59.631Z,9.95
2022-09-17T03:53:01.175Z,10.10
2022-09-17T03:54:03.343Z,8.25
2022-09-17T03:55:05.505Z,11.73
2022-09-17T03:56:08.053Z,10.52
2022-09-17T03:57:09.589Z,8.82
2022-09-17T03:58:11.381Z,9.35
2022-09-17T03:59:12.961Z,16.63
2022-09-17T04:00:17.274Z,7.90
2022-09-17T04:01:18.848Z,4.05
2022-09-17T04:02:20.536Z,10.00
2022-09-17T04:03:22.219Z,6.20
2022-09-17T04:04:23.854Z,10.75
2022-09-17T04:05:25.396Z,5.85
2022-09-17T04:06:26.949Z,8.02
2022-09-17T04:07:28.489Z,15.00
2022-09-17T04:08:30.070Z,8.43
2022-09-17T04:09:33.307Z,13.98
2022-09-17T04:10:36.721Z,5.13
2022-09-17T04:11:38.309Z,8.95
2022-09-17T04:12:40.293Z,11.48
2022-09-17T04:13:41.859Z,7.28
2022-09-17T04:14:43.458Z,10.30
2022-09-17T04:15:45.988Z,9.85
2022-09-17T04:16:47.594Z,15.88
2022-09-17T04:17:49.120Z,8.10
2022-09-17T04:18:50.940Z,6.03
2022-09-17T04:19:53.500Z,12.68
2022-09-17T04:20:55.321Z,13.02
2022-09-17T04:21:56.877Z,9.05
2022-09-17T04:22:58.515Z,8.95
2022-09-17T04:24:00.178Z,14.68
2022-09-17T04:25:01.759Z,12.95
2022-09-17T04:26:03.373Z,13.95
2022-09-17T04:27:05.008Z,6.18
2022-09-17T04:28:06.965Z,4.88
2022-09-17T04:29:09.478Z,8.45
2022-09-17T04:30:12.167Z,10.10
2022-09-17T04:31:13.799Z,8.25
2022-09-17T04:32:15.611Z,12.38
2022-09-17T04:33:17.194Z,6.70
2022-09-17T04:34:18.837Z,7.63
2022-09-17T04:35:20.414Z,7.57
2022-09-17T04:36:21.950Z,6.05
2022-09-17T04:37:25.817Z,12.43
2022-09-17T04:38:27.537Z,8.98
2022-09-17T04:39:29.086Z,8.27
2022-09-17T04:40:30.707Z,7.47
2022-09-17T04:41:32.294Z,6.15
2022-09-17T04:42:33.863Z,11.13
2022-09-17T04:43:35.627Z,7.88
2022-09-17T04:44:37.141Z,16.27
2022-09-17T04:45:38.702Z,6.13
2022-09-17T04:46:40.238Z,11.13
2022-09-17T04:47:41.835Z,11.13
2022-09-17T04:48:43.629Z,6.40
2022-09-17T04:49:45.193Z,8.93
2022-09-17T04:50:47.092Z,11.23
2022-09-17T04:51:48.645Z,7.10
2022-09-17T04:52:50.194Z,13.40
2022-09-17T04:53:51.802Z,13.95
2022-09-17T04:54:53.310Z,19.30
2022-09-17T04:55:55.096Z,11.05
2022-09-17T04:56:56.946Z,11.45
2022-09-17T04:57:58.994Z,21.98
2022-09-17T04:59:00.569Z,12.80
2022-09-17T05:00:02.664Z,22.40
2022-09-17T05:01:04.633Z,9.43
2022-09-17T05:02:06.309Z,9.27
2022-09-17T05:03:08.483Z,18.33
2022-09-17T05:04:10.551Z,8.65
2022-09-17T05:05:12.123Z,10.48
2022-09-17T05:06:13.871Z,10.75
2022-09-17T05:07:15.394Z,13.30
2022-09-17T05:08:16.959Z,15.23
2022-09-17T05:09:18.490Z,10.23
2022-09-17T05:10:22.207Z,13.05
2022-09-17T05:11:23.803Z,19.27
2022-09-17T05:12:25.402Z,16.40
2022-09-17T05:13:26.951Z,13.85
2022-09-17T05:14:28.490Z,11.07
2022-09-17T05:15:30.079Z,13.68
2022-09-17T05:16:31.685Z,17.42
2022-09-17T05:17:33.307Z,13.90
2022-09-17T05:18:34.844Z,13.02
2022-09-17T05:19:36.457Z,15.30
2022-09-17T05:20:38.662Z,9.90
2022-09-17T05:21:40.266Z,18.42
2022-09-17T05:22:43.496Z,12.13
2022-09-17T05:23:45.072Z,13.18
2022-09-17T05:24:46.916Z,8.38
2022-09-17T05:25:48.698Z,11.65
2022-09-17T05:26:50.356Z,12.75
2022-09-17T05:27:53.306Z,19.08
2022-09-17T05:28:54.972Z,10.98
2022-09-17T05:29:56.499Z,15.48
2022-09-17T05:31:01.618Z,12.23
2022-09-17T05:32:04.261Z,18.45
2022-09-17T05:33:07.107Z,21.42
2022-09-17T05:34:09.054Z,13.48
2022-09-17T05:35:10.748Z,12.68
2022-09-17T05:36:12.311Z,12.45
2022-09-17T05:37:14.096Z,13.48
2022-09-17T05:38:15.694Z,13.43
2022-09-17T05:39:17.301Z,22.27
2022-09-17T05:40:18.899Z,17.45
2022-09-17T05:41:20.490Z,10.60
2022-09-17T05:42:22.071Z,13.68
2022-09-17T05:43:24.064Z,10.30
2022-09-17T05:44:25.900Z,16.13
2022-09-17T05:45:27.817Z,20.77
2022-09-17T05:46:29.393Z,15.85
2022-09-17T05:47:31.034Z,15.93
2022-09-17T05:48:33.095Z,14.70
2022-09-17T05:49:34.619Z,18.15
2022-09-17T05:50:36.134Z,10.10
2022-09-17T05:51:38.077Z,23.80
2022-09-17T05:52:40.167Z,19.48
2022-09-17T05:53:42.275Z,15.38
2022-09-17T05:54:43.869Z,16.58
2022-09-17T05:55:45.395Z,11.05
2022-09-17T05:56:46.965Z,15.02
2022-09-17T05:57:49.292Z,23.83
2022-09-17T05:58:54.935Z,16.95
2022-09-17T05:59:56.479Z,14.63
2022-09-17T06:01:01.216Z,21.92
2022-09-17T06:02:02.995Z,18.90
2022-09-17T06:03:05.366Z,15.40
2022-09-17T06:04:06.917Z,21.60
2022-09-17T06:05:09.144Z,16.85
2022-09-17T06:06:10.883Z,14.02
2022-09-17T06:07:12.517Z,13.43
2022-09-17T06:08:14.084Z,16.40
2022-09-17T06:09:15.753Z,12.70
2022-09-17T06:10:17.662Z,19.02
2022-09-17T06:11:19.366Z,18.08
2022-09-17T06:12:20.923Z,14.75
2022-09-17T06:13:22.511Z,19.15
2022-09-17T06:14:24.037Z,16.88
2022-09-17T06:15:26.938Z,13.32
2022-09-17T06:16:29.547Z,17.98
2022-09-17T06:17:35.558Z,14.90
2022-09-17T06:18:37.109Z,16.13
2022-09-17T06:19:38.649Z,11.70
2022-09-17T06:20:40.169Z,15.60
2022-09-17T06:21:41.703Z,12.63
2022-09-17T06:22:43.349Z,22.40
2022-09-17T06:23:45.212Z,21.60
2022-09-17T06:24:46.867Z,22.90
2022-09-17T06:26:01.210Z,15.55
2022-09-17T06:27:02.772Z,12.88
2022-09-17T06:28:04.406Z,17.75
2022-09-17T06:29:05.937Z,25.52
2022-09-17T06:30:08.007Z,15.98
2022-09-17T06:31:11.626Z,20.17
2022-09-17T06:32:15.549Z,12.13
2022-09-17T06:33:17.094Z,23.55
2022-09-17T06:34:18.682Z,26.38
2022-09-17T06:35:20.512Z,20.15
2022-09-17T06:36:22.194Z,21.08
2022-09-17T06:37:31.584Z,15.75
2022-09-17T06:38:34.770Z,22.35
2022-09-17T06:39:36.736Z,16.30
2022-09-17T06:40:38.510Z,12.60
2022-09-17T06:41:43.122Z,12.02
2022-09-17T06:42:45.105Z,14.32
2022-09-17T06:43:46.654Z,12.90
2022-09-17T06:44:48.899Z,15.80
2022-09-17T06:45:54.240Z,17.48
2022-09-17T06:46:55.932Z,14.07
2022-09-17T06:47:57.582Z,12.20
2022-09-17T06:48:59.177Z,14.48
2022-09-17T06:50:01.713Z,15.82
2022-09-17T06:51:08.102Z,20.30
2022-09-17T06:52:09.663Z,18.73
2022-09-17T06:53:11.253Z,14.93
2022-09-17T06:54:12.798Z,19.63
2022-09-17T06:55:14.859Z,15.55
2022-09-17T06:56:16.566Z,16.08
2022-09-17T06:57:18.086Z,16.83
2022-09-17T06:58:19.990Z,23.17
2022-09-17T06:59:21.537Z,11.65
2022-09-17T07:00:23.099Z,21.73
2022-09-17T07:01:24.678Z,15.68
2022-09-17T07:02:26.417Z,13.93
2022-09-17T07:03:29.138Z,14.80
2022-09-17T07:04:30.709Z,17.67
2022-09-17T07:05:35.141Z,11.73
2022-09-17T07:06:36.658Z,25.77
2022-09-17T07:07:39.088Z,16.42
2022-09-17T07:08:41.484Z,14.73
2022-09-17T07:09:43.017Z,28.58
2022-09-17T07:10:44.582Z,19.05
2022-09-17T07:11:46.174Z,11.68
2022-09-17T07:12:49.911Z,15.00
2022-09-17T07:13:51.735Z,14.27
2022-09-17T07:14:53.278Z,13.95
2022-09-17T07:15:58.457Z,15.15
2022-09-17T07:17:00.058Z,14.88
2022-09-17T07:18:08.566Z,15.88
2022-09-17T07:19:11.166Z,25.20
2022-09-17T07:20:13.565Z,17.90
2022-09-17T07:21:15.317Z,13.45
2022-09-17T07:22:16.948Z,15.20
2022-09-17T07:23:18.469Z,18.83
2022-09-17T07:24:19.998Z,16.13
2022-09-17T07:25:21.531Z,15.15
2022-09-17T07:26:23.158Z,16.55
2022-09-17T07:27:27.395Z,26.13
2022-09-17T07:28:29.435Z,23.50
2022-09-17T07:29:32.136Z,12.07
2022-09-17T07:30:33.689Z,15.90
2022-09-17T07:31:35.311Z,15.38
2022-09-17T07:32:37.311Z,14.32
2022-09-17T07:33:40.113Z,13.57
2022-09-17T07:34:41.726Z,22.45
2022-09-17T07:35:43.456Z,14.05
2022-09-17T07:36:45.445Z,16.13
2022-09-17T07:37:48.293Z,14.73
2022-09-17T07:38:50.027Z,9.02
2022-09-17T07:39:55.816Z,17.30
2022-09-17T07:41:06.518Z,16.80
2022-09-17T07:42:10.179Z,14.77
2022-09-17T07:43:11.807Z,13.30
2022-09-17T07:44:13.409Z,19.00
2022-09-17T07:45:15.083Z,9.98
2022-09-17T07:46:19.396Z,12.27
2022-09-17T07:47:21.070Z,8.70
2022-09-17T07:48:22.766Z,23.88
2022-09-17T07:49:24.438Z,15.02
2022-09-17T07:50:26.009Z,15.65
2022-09-17T07:51:28.513Z,19.52
2022-09-17T07:52:30.089Z,14.45
2022-09-17T07:53:31.628Z,19.30
2022-09-17T07:54:39.113Z,16.23
2022-09-17T07:55:40.683Z,12.40
2022-09-17T07:56:42.494Z,20.73
2022-09-17T07:57:44.417Z,16.73
2022-09-17T07:58:46.041Z,11.73
2022-09-17T07:59:47.596Z,18.45
2022-09-17T08:00:49.850Z,11.55
2022-09-17T08:01:51.476Z,24.83
2022-09-17T08:02:54.675Z,10.15
2022-09-17T08:03:56.395Z,17.42
2022-09-17T08:04:57.954Z,11.57
2022-09-17T08:06:11.439Z,18.75
2022-09-17T08:07:13.707Z,19.95
2022-09-17T08:08:18.983Z,15.52
2022-09-17T08:09:23.402Z,18.15
2022-09-17T08:10:26.961Z,13.65
2022-09-17T08:11:55.645Z,16.63
2022-09-17T08:12:56.216Z,15.60
2022-09-17T08:13:58.142Z,13.98
2022-09-17T08:14:59.787Z,12.45
2022-09-17T08:16:10.208Z,12.25
2022-09-17T08:17:11.825Z,11.77
2022-09-17T08:18:16.526Z,14.77
2022-09-17T08:19:19.020Z,10.90
2022-09-17T08:20:21.055Z,22.05
2022-09-17T08:21:23.150Z,12.80
2022-09-17T08:22:24.693Z,14.60
2022-09-17T08:23:27.147Z,14.68
2022-09-17T08:24:28.872Z,16.35
2022-09-17T08:25:30.426Z,23.95
2022-09-17T08:26:32.623Z,10.45
2022-09-17T08:27:34.348Z,10.10
2022-09-17T08:28:35.912Z,19.88
2022-09-17T08:29:37.497Z,21.02
2022-09-17T08:30:39.042Z,14.65
2022-09-17T08:31:40.704Z,18.50
2022-09-17T08:32:42.585Z,7.47
2022-09-17T08:33:45.126Z,14.00
2022-09-17T08:34:46.708Z,9.27
2022-09-17T08:35:59.289Z,10.32
2022-09-17T08:37:01.321Z,8.25
2022-09-17T08:38:02.971Z,17.83
2022-09-17T08:39:04.571Z,14.27
2022-09-17T08:40:07.101Z,11.30
2022-09-17T08:41:15.014Z,19.90
2022-09-17T08:42:35.158Z,15.00
2022-09-17T08:44:01.619Z,10.48
2022-09-17T08:45:05.680Z,9.20
2022-09-17T08:46:10.530Z,9.63
2022-09-17T08:47:33.449Z,11.53
2022-09-17T08:48:51.766Z,12.77
2022-09-17T08:49:59.501Z,11.70
2022-09-17T08:51:08.601Z,16.83
2022-09-17T08:52:55.489Z,13.03
2022-09-17T08:54:18.944Z,5.27
2022-09-17T08:55:33.844Z,9.67
2022-09-17T08:56:38.002Z,9.70
2022-09-17T08:58:05.094Z,17.87
2022-09-17T08:59:26.718Z,6.70
2022-09-17T09:00:47.207Z,8.20
2022-09-17T09:02:00.634Z,12.43
2022-09-17T09:03:29.285Z,12.67
2022-09-17T09:04:56.641Z,10.53
2022-09-17T09:06:00.420Z,8.17
2022-09-17T09:07:10.346Z,9.83
2022-09-17T09:08:28.624Z,12.53
2022-09-17T09:09:37.936Z,12.17
2022-09-17T09:10:50.831Z,8.90
2022-09-17T09:12:03.286Z,14.87
2022-09-17T09:13:05.150Z,17.43
2022-09-17T09:14:42.884Z,15.53
2022-09-17T09:15:59.418Z,11.20
2022-09-17T09:17:08.119Z,11.13
2022-09-17T09:18:18.839Z,6.10
2022-09-17T09:19:30.116Z,15.23
2022-09-17T09:20:49.310Z,11.00
2022-09-17T09:22:24.829Z,10.30
2022-09-17T09:23:55.429Z,14.32
2022-09-17T09:25:23.291Z,12.27
2022-09-17T09:26:45.115Z,18.40
2022-09-17T09:27:56.138Z,8.93
2022-09-17T09:29:35.487Z,9.20
2022-09-17T09:31:04.642Z,12.10
2022-09-17T09:32:16.747Z,13.83
2022-09-17T09:33:28.518Z,15.87
2022-09-17T09:34:33.320Z,7.70
2022-09-17T09:35:39.333Z,6.20
2022-09-17T09:36:40.897Z,9.53
2022-09-17T09:37:48.565Z,13.83
2022-09-17T09:39:03.261Z,10.03
2022-09-17T09:40:46.556Z,11.23
2022-09-17T09:41:58.377Z,12.17
2022-09-17T09:43:04.028Z,13.77
2022-09-17T09:44:11.336Z,13.60
2022-09-17T09:45:17.694Z,10.13
2022-09-17T09:46:54.182Z,12.00
2022-09-17T09:48:11.554Z,16.63
2022-09-17T09:49:24.907Z,7.60
2022-09-17T09:50:54.769Z,11.83
2022-09-17T09:52:07.708Z,15.97
2022-09-17T09:53:34.360Z,7.37
2022-09-17T09:54:49.762Z,14.80
2022-09-17T09:56:13.727Z,11.10
2022-09-17T09:57:25.150Z,12.80
2022-09-17T09:58:37.605Z,12.98
2022-09-17T09:59:41.279Z,8.48
2022-09-17T10:00:43.623Z,16.35
2022-09-17T10:01:46.210Z,5.72
2022-09-17T10:02:50.932Z,9.55
2022-09-17T10:03:53.989Z,6.80
2022-09-17T10:05:08.578Z,18.23
2022-09-17T10:06:11.457Z,16.83
2022-09-17T10:07:13.063Z,13.23
2022-09-17T10:08:16.013Z,9.57
2022-09-17T10:09:21.851Z,13.10
2022-09-17T10:10:23.534Z,10.10
2022-09-17T10:11:28.198Z,7.53
2022-09-17T10:12:29.938Z,14.57
2022-09-17T10:13:35.537Z,11.40
2022-09-17T10:14:41.902Z,12.27
2022-09-17T10:15:43.640Z,9.97
2022-09-17T10:16:45.340Z,9.10
2022-09-17T10:17:47.185Z,3.70
2022-09-17T10:18:50.737Z,6.93
2022-09-17T10:20:10.795Z,11.83
2022-09-17T10:21:30.009Z,9.57
2022-09-17T10:22:44.716Z,8.60
2022-09-17T10:23:47.140Z,6.00
2022-09-17T10:24:49.425Z,7.63
2022-09-17T10:25:52.559Z,6.53
2022-09-17T10:27:07.460Z,8.90
2022-09-17T10:28:28.560Z,10.27
2022-09-17T10:29:30.567Z,21.90
2022-09-17T10:30:32.548Z,5.50
2022-09-17T10:31:55.377Z,6.30
2022-09-17T10:33:19.617Z,11.27
2022-09-17T10:34:29.305Z,6.57
2022-09-17T10:35:31.475Z,8.50
2022-09-17T10:36:49.270Z,11.53
2022-09-17T10:37:53.067Z,14.03
2022-09-17T10:38:54.686Z,9.07
2022-09-17T10:39:56.612Z,10.70
2022-09-17T10:41:27.640Z,8.70
2022-09-17T10:42:29.217Z,4.83
2022-09-17T10:43:30.984Z,8.63
2022-09-17T10:44:35.628Z,9.83
2022-09-17T10:45:40.359Z,11.07
2022-09-17T10:46:42.050Z,10.93
2022-09-17T10:47:44.520Z,8.03
2022-09-17T10:49:22.308Z,9.10
2022-09-17T10:50:35.552Z,9.10
2022-09-17T10:51:38.012Z,5.80
2022-09-17T10:52:46.190Z,9.67
2022-09-17T10:54:20.014Z,8.50
2022-09-17T10:55:38.212Z,7.63
2022-09-17T10:56:44.350Z,6.93
2022-09-17T10:58:07.916Z,9.83
2022-09-17T10:59:34.386Z,9.50
2022-09-17T11:00:51.338Z,11.23
2022-09-17T11:02:20.792Z,7.03
2022-09-17T11:03:35.231Z,11.50
2022-09-17T11:05:00.711Z,11.90
2022-09-17T11:06:15.335Z,8.93
2022-09-17T11:07:34.498Z,13.40
2022-09-17T11:08:50.705Z,4.60
2022-09-17T11:10:02.579Z,5.73
2022-09-17T11:11:22.960Z,8.53
2022-09-17T11:12:46.477Z,5.60
2022-09-17T11:14:15.636Z,10.37
2022-09-17T11:15:41.879Z,8.83
2022-09-17T11:17:08.087Z,4.77
2022-09-17T11:18:27.331Z,7.97
2022-09-17T11:19:37.860Z,9.47
2022-09-17T11:21:10.263Z,8.57
2022-09-17T11:22:24.182Z,12.33
2022-09-17T11:23:51.529Z,3.97
2022-09-17T11:25:30.694Z,8.03
2022-09-17T11:26:40.920Z,9.00
2022-09-17T11:27:51.372Z,6.20
2022-09-17T11:29:14.302Z,12.07
2022-09-17T11:30:17.857Z,10.20
2022-09-17T11:31:38.548Z,6.37
2022-09-17T11:33:04.572Z,7.03
2022-09-17T11:34:43.024Z,8.53
2022-09-17T11:35:52.629Z,12.90
2022-09-17T11:37:17.268Z,10.07
2022-09-17T11:38:34.364Z,13.80
2022-09-17T11:39:51.186Z,11.57
2022-09-17T11:41:01.350Z,8.70
2022-09-17T11:42:07.567Z,6.40
2022-09-17T11:43:28.422Z,7.78
2022-09-17T11:44:45.732Z,5.82
2022-09-17T11:45:58.570Z,11.77
2022-09-17T11:47:09.427Z,9.55
2022-09-17T11:48:16.943Z,6.47
2022-09-17T11:49:34.939Z,10.48
2022-09-17T11:50:58.265Z,7.53
2022-09-17T11:52:05.703Z,4.87
2022-09-17T11:53:23.536Z,4.73
2022-09-17T11:55:17.621Z,9.37
2022-09-17T11:56:27.132Z,5.50
2022-09-17T11:57:36.049Z,8.10
2022-09-17T11:59:02.021Z,8.43
2022-09-17T12:00:13.039Z,8.87
2022-09-17T12:01:20.890Z,10.87
2022-09-17T12:02:38.068Z,6.03
2022-09-17T12:03:55.357Z,8.37
2022-09-17T12:05:15.444Z,13.33
2022-09-17T12:06:23.321Z,5.90
2022-09-17T12:07:31.890Z,3.50
2022-09-17T12:08:53.476Z,4.60
2022-09-17T12:10:17.129Z,3.63
2022-09-17T12:11:40.844Z,9.10
2022-09-17T12:12:50.542Z,13.40
2022-09-17T12:14:01.587Z,4.90
2022-09-17T12:15:21.485Z,6.17
2022-09-17T12:16:27.559Z,4.83
2022-09-17T12:17:38.974Z,4.80
2022-09-17T12:19:05.649Z,6.17
2022-09-17T12:20:25.592Z,5.43
2022-09-17T12:21:36.872Z,8.70
2022-09-17T12:22:42.671Z,4.50
2022-09-17T12:23:59.091Z,4.60
2022-09-17T12:25:02.485Z,6.10
2022-09-17T12:26:23.739Z,7.70
2022-09-17T12:27:43.804Z,10.47
2022-09-17T12:29:06.408Z,9.87
2022-09-17T12:30:12.630Z,7.53
2022-09-17T12:31:40.557Z,8.07
2022-09-17T12:32:57.365Z,9.60
2022-09-17T12:34:24.662Z,6.20
2022-09-17T12:36:02.977Z,9.03
2022-09-17T12:37:41.685Z,12.60
2022-09-17T12:39:04.615Z,7.33
2022-09-17T12:40:18.955Z,10.35
2022-09-17T12:41:39.388Z,8.15
2022-09-17T12:43:06.016Z,4.27
2022-09-17T12:44:26.525Z,3.23
2022-09-17T12:45:38.264Z,2.80
2022-09-17T12:47:22.493Z,8.57
2022-09-17T12:48:48.817Z,6.33
2022-09-17T12:50:05.312Z,17.43
2022-09-17T12:51:46.603Z,4.93
2022-09-17T12:53:16.852Z,13.60
2022-09-17T12:54:53.712Z,5.40
2022-09-17T12:56:23.050Z,3.33
2022-09-17T12:57:36.625Z,6.05
2022-09-17T12:58:56.646Z,2.97
2022-09-17T13:00:14.445Z,3.67
2022-09-17T13:01:45.253Z,2.88
2022-09-17T13:03:10.071Z,3.63
2022-09-17T13:04:38.177Z,5.57
2022-09-17T13:06:18.613Z,9.25
2022-09-17T13:07:53.390Z,4.20
2022-09-17T13:09:26.624Z,1.55
2022-09-17T13:11:02.425Z,3.55
2022-09-17T13:12:20.385Z,4.65
2022-09-17T13:13:43.386Z,4.35
2022-09-17T13:15:12.388Z,3.97
2022-09-17T13:16:42.159Z,3.15
2022-09-17T13:18:12.747Z,7.32
2022-09-17T13:19:24.915Z,2.63
2022-09-17T13:20:33.614Z,3.38
2022-09-17T13:21:49.638Z,2.65
2022-09-17T13:22:54.250Z,1.73
2022-09-17T13:23:56.154Z,3.60
2022-09-17T13:25:08.429Z,4.97
2022-09-17T13:26:11.971Z,4.73
2022-09-17T13:27:23.192Z,5.17
2022-09-17T13:29:00.301Z,1.90
2022-09-17T13:30:02.811Z,3.13
2022-09-17T13:31:05.207Z,1.73
2022-09-17T13:32:07.014Z,3.17
2022-09-17T13:33:10.696Z,1.77
2022-09-17T13:34:18.127Z,4.80
2022-09-17T13:35:22.543Z,2.83
2022-09-17T13:36:39.298Z,2.83
2022-09-17T13:37:52.942Z,7.33
2022-09-17T13:38:54.686Z,2.57
2022-09-17T13:39:56.797Z,3.43
2022-09-17T13:41:24.141Z,7.03
2022-09-17T13:42:31.972Z,6.63
2022-09-17T13:43:33.617Z,7.27
2022-09-17T13:44:42.378Z,11.40
2022-09-17T13:45:59.381Z,6.30
2022-09-17T13:47:21.817Z,4.87
2022-09-17T13:48:28.197Z,1.77
2022-09-17T13:49:29.905Z,2.10
2022-09-17T13:50:34.746Z,3.70
2022-09-17T13:51:39.100Z,2.15
2022-09-17T13:52:48.735Z,1.63
2022-09-17T13:53:55.115Z,2.67
2022-09-17T13:54:56.915Z,1.03
2022-09-17T13:56:01.197Z,3.30
2022-09-17T13:57:11.613Z,2.75
2022-09-17T13:58:25.085Z,6.20
2022-09-17T13:59:27.985Z,4.55
2022-09-17T14:00:49.201Z,5.55
2022-09-17T14:01:58.535Z,2.25
2022-09-17T14:03:28.853Z,1.77
2022-09-17T14:04:52.317Z,1.25
2022-09-17T14:05:54.815Z,4.00
2022-09-17T14:06:59.574Z,0.98
2022-09-17T14:08:13.490Z,4.47
2022-09-17T14:09:45.833Z,3.08
2022-09-17T14:10:47.573Z,0.82
2022-09-17T14:11:49.206Z,3.25
2022-09-17T14:13:16.830Z,1.67
2022-09-17T14:14:46.364Z,3.67
2022-09-17T14:15:47.883Z,4.30
2022-09-17T14:16:50.446Z,4.70
2022-09-17T14:17:52.834Z,8.70
2022-09-17T14:19:17.001Z,3.83
2022-09-17T14:20:23.954Z,3.90
2022-09-17T14:21:33.066Z,3.53
2022-09-17T14:22:34.669Z,3.00
2022-09-17T14:23:47.000Z,2.90
2022-09-17T14:24:52.458Z,5.70
2022-09-17T14:25:55.707Z,1.90
2022-09-17T14:27:22.236Z,6.37
2022-09-17T14:29:08.468Z,3.67
2022-09-17T14:30:21.607Z,0.63
2022-09-17T14:31:31.231Z,2.57
2022-09-17T14:33:02.702Z,2.10
2022-09-17T14:34:15.802Z,2.53
2022-09-17T14:35:22.005Z,1.60
2022-09-17T14:36:24.107Z,3.90
2022-09-17T14:37:27.114Z,3.50
2022-09-17T14:38:50.771Z,3.70
2022-09-17T14:39:53.106Z,6.70
2022-09-17T14:41:18.718Z,4.23
2022-09-17T14:42:27.721Z,2.43
2022-09-17T14:43:54.652Z,3.70
2022-09-17T14:45:07.769Z,2.37
2022-09-17T14:46:20.823Z,5.07
2022-09-17T14:47:23.600Z,2.50
2022-09-17T14:48:31.056Z,2.10
2022-09-17T14:49:40.852Z,2.80
2022-09-17T14:50:42.442Z,2.23
2022-09-17T14:51:44.141Z,8.40
2022-09-17T14:52:53.981Z,1.17
2022-09-17T14:54:05.652Z,5.00
2022-09-17T14:55:23.958Z,2.53
2022-09-17T14:56:25.704Z,3.27
2022-09-17T14:57:28.832Z,3.37
2022-09-17T14:58:40.227Z,2.03
2022-09-17T14:59:52.585Z,3.57
2022-09-17T15:00:54.256Z,4.13
2022-09-17T15:01:56.335Z,3.63
2022-09-17T15:02:59.569Z,4.13
2022-09-17T15:04:13.464Z,7.83
2022-09-17T15:05:50.215Z,2.17
2022-09-17T15:06:52.237Z,3.03
2022-09-17T15:08:17.087Z,2.87